• Join FlightAware (Why Join?)
  • Login
  • US Flag 
07:50AM EDT


 

Airport Tracker/Info


-or-


 

Live Flight TrackerFlight Track Log ✈ AAY894 ✈ 01-Mar-2014 ✈ KPIE - KIAG

Flight Track Log - Related Links

Times and Time Zones

All times are in EST time to prevent confusion due to time zone crossing. See the AAY894 flight status page for this flight to view local times or setup timezone preferences in your user account.

Time Position Orientation Groundspeed Altitude Reporting Facility
EST Latitude Longitude Course Direction KTS MPH feet Rate Location/Type
06:59AM 28.3960 -82.6713 360° North 330 380 14,400  Level FlightAware ADS-B (KMCO)
06:59AM 28.4803 -82.6713 North 338 389 16,500 2,340 Climbing FlightAware ADS-B (KMCO)
07:01AM 28.6448 -82.6619 North 348 400 20,500 1,860 Climbing FlightAware ADS-B (KMCO)
07:05AM 28.9890 -82.6420 North 374 430 26,300 1,500 Climbing FlightAware ADS-B (KMCO)
07:07AM 29.2137 -82.6291 North 394 453 28,900 1,020 Climbing FlightAware ADS-B (KMCO)
07:09AM 29.4825 -82.6133 North 406 467 31,200 900 Climbing FlightAware ADS-B (KMCO)
07:10AM 29.5536 -82.6092 North 407 468 31,800 960 Climbing FlightAware ADS-B (KMCO)
07:10AM 29.6306 -82.6046 North 406 467 32,500 960 Climbing FlightAware ADS-B (KMCO)
07:11AM 29.6880 -82.6012 North 405 466 33,000 960 Climbing FlightAware ADS-B (KMCO)
07:11AM 29.7449 -82.5979 North 405 466 33,500 960 Climbing FlightAware ADS-B (KMCO)
07:12AM 29.8018 -82.5945 North 403 464 34,000 900 Climbing FlightAware ADS-B (KMCO)
07:12AM 29.8582 -82.5911 North 403 464 34,400 540 Climbing FlightAware ADS-B (KMCO)
07:13AM 29.9154 -82.5878 North 408 470 34,600 480 Climbing FlightAware ADS-B (KMCO)
07:13AM 29.9721 -82.5846 North 411 473 34,900 600 Climbing FlightAware ADS-B (KMCO)
07:14AM 30.0297 -82.5812 North 415 478 35,200 480 Climbing FlightAware ADS-B (KMCO)
07:14AM 30.0857 -82.5778 North 417 480 35,400 660 Climbing FlightAware ADS-B (KMCO)
07:15AM 30.1456 -82.5741 North 413 475 35,900 900 Climbing FlightAware ADS-B (KMCO)
07:16AM 30.2219 -82.5695 North 410 472 36,500 840 Climbing FlightAware ADS-B (KMCO)
07:16AM 30.2793 -82.5661 North 407 468 36,900 420 Climbing FlightAware ADS-B (KMCO)
07:17AM 30.3540 -82.5617 North 409 471 37,000  Climbing FlightAware ADS-B (KMCO)
07:18AM 30.5040 -82.5527 North 406 467 37,000  Level FlightAware ADS-B (KMCO)
07:20AM 30.7683 -82.5414 North 405 466 37,000  Level FlightAware ADS-B (KMCO)
07:22AM 30.9111 -82.5367 North 398 458 37,000  Level Jacksonville Center
07:23AM 31.0219 -82.5339 North 398 458 37,000  Level Jacksonville Center
07:24AM 31.1347 -82.5286 North 403 464 37,000  Level Jacksonville Center
07:25AM 31.2472 -82.5256 North 403 464 37,000  Level Jacksonville Center
07:26AM 31.3558 -82.5228 North 403 464 37,000  Level Jacksonville Center
07:27AM 31.4644 -82.5103 North 398 458 37,000  Level Jacksonville Center
07:29AM 31.7075 -82.4814 North 410 472 37,000  Level Atlanta Center
07:30AM 31.8181 -82.4650 North 403 464 37,000  Level Atlanta Center
07:31AM 31.9283 -82.4483 North 403 464 37,000  Level Atlanta Center
07:32AM 32.0367 -82.4317 North 403 464 37,000  Level Atlanta Center
07:33AM 32.1469 -82.4150 North 397 457 37,000  Level Atlanta Center
07:34AM 32.2678 -82.3956 North 397 457 37,000  Level Atlanta Center
07:35AM 32.3761 -82.3789 North 397 457 37,000  Level Atlanta Center
07:36AM 32.4844 -82.3594 North 392 451 37,000  Level Atlanta Center
07:37AM 32.5947 -82.3425 North 386 444 37,000  Level Atlanta Center
07:38AM 32.7031 -82.3256 North 386 444 37,000  Level Atlanta Center
07:39AM 32.8114 -82.3064 North 386 444 37,000  Level Atlanta Center
07:40AM 32.9175 -82.2894 North 386 444 37,000  Level Atlanta Center
07:41AM 33.0258 -82.2747 North 386 444 37,000  Level Atlanta Center
07:42AM 33.1322 -82.2553 North 386 444 37,000  Level Atlanta Center
07:43AM 33.2383 -82.2381 North 386 444 37,000  Level Atlanta Center
07:44AM 33.3444 -82.2211 North 386 444 37,000  Level Atlanta Center
07:45AM 33.4508 -82.2039 North 386 444 37,000  Level Atlanta Center
07:46AM 33.5567 -82.1717 14° North 386 444 37,000  Level Atlanta Center
07:47AM 33.6544 -82.1422 14° North 394 453 37,000  Level Atlanta Center
07:48AM 33.7603 -82.1097 14° North 394 453 37,000  Level Atlanta Center
07:49AM 33.8664 -82.0800 13° North 394 453 37,000  Level Atlanta Center
07:50AM 33.9742 -82.0472 14° North 394 453 37,000  Level Atlanta Center
07:51AM 34.0803 -82.0147 14° North 394 453 37,000  Level Atlanta Center
07:56AM 34.6585 -81.8420 14° North 399 459 37,000  Level FlightAware ADS-B (KDZJ)
07:57AM 34.7217 -81.8227 14° North 399 459 37,000  Level FlightAware ADS-B (KDZJ)
07:58AM 34.8262 -81.7909 14° North 401 461 37,000  Level FlightAware ADS-B (KDZJ)
07:58AM 34.8895 -81.7715 14° North 400 460 37,000  Level FlightAware ADS-B (KDZJ)
08:02AM 35.3178 -81.6397 14° North 400 460 37,000  Level FlightAware ADS-B (KDZJ)
08:03AM 35.3650 -81.6294 14° North 394 453 37,000  Level Atlanta Center
08:04AM 35.4708 -81.5958 15° North 389 448 37,000  Level Atlanta Center
08:05AM 35.5806 -81.5644 13° North 394 453 37,000  Level Atlanta Center
08:06AM 35.6883 -81.5306 14° North 394 453 37,000  Level Atlanta Center
08:07AM 35.7961 -81.4939 15° North 394 453 37,000  Level Atlanta Center
08:08AM 35.9039 -81.4597 14° North 394 453 37,000  Level Atlanta Center
08:09AM 36.0139 -81.4256 14° North 394 453 37,000  Level Atlanta Center
08:10AM 36.1214 -81.3911 15° North 394 453 37,000  Level Atlanta Center
08:11AM 36.2314 -81.3567 14° North 394 453 37,000  Level Atlanta Center
08:12AM 36.3472 -81.3192 15° North 389 448 37,000  Level Atlanta Center
08:13AM 36.4528 -81.2847 15° North 389 448 37,000  Level Atlanta Center
08:14AM 36.5583 -81.2500 15° North 389 448 37,000  Level Atlanta Center
08:15AM 36.6639 -81.2128 16° North 394 453 37,000  Level Atlanta Center
08:17AM 36.8553 -81.1542 14° North 399 459 37,000  Level Indianapolis Center
08:18AM 36.9631 -81.1200 14° North 401 461 37,000  Level Indianapolis Center
08:19AM 37.0950 -81.0786 14° North 411 473 37,000  Level Indianapolis Center
08:20AM 37.2044 -81.0419 15° North 412 474 37,000  Level Indianapolis Center
08:21AM 37.3136 -81.0061 15° North 413 475 37,000  Level Indianapolis Center
08:22AM 37.4197 -80.9964 North 398 458 37,000  Level Indianapolis Center
08:23AM 37.5297 -80.9900 North 396 456 37,000  Level Indianapolis Center
08:24AM 37.6661 -80.9839 North 410 472 37,000  Level Indianapolis Center
08:25AM 37.7744 -80.9800 North 404 465 37,000  Level Indianapolis Center
08:26AM 37.8939 -80.9436 14° North 429 494 37,000  Level Indianapolis Center
08:27AM 38.0075 -80.9036 16° North 430 495 37,000  Level Indianapolis Center
08:28AM 38.1214 -80.8631 16° North 429 494 37,000  Level Indianapolis Center
08:29AM 38.2344 -80.8225 16° North 428 493 37,000  Level Indianapolis Center
08:30AM 38.3478 -80.7817 16° North 427 491 37,000  Level Indianapolis Center
08:31AM 38.4611 -80.7411 16° North 427 491 37,000  Level Indianapolis Center
08:32AM 38.5753 -80.6997 16° North 427 491 37,000  Level Indianapolis Center
08:33AM 38.6897 -80.6589 16° North 427 491 37,000  Level Indianapolis Center
08:34AM 38.8269 -80.6083 16° North 428 493 37,000  Level Indianapolis Center
08:35AM 38.9447 -80.5664 15° North 431 496 37,000  Level Indianapolis Center
08:36AM 39.0586 -80.5231 16° North 432 497 37,000  Level Indianapolis Center
08:37AM 39.1731 -80.4803 16° North 431 496 37,000  Level Indianapolis Center
08:38AM 39.2869 -80.4386 16° North 430 495 37,000 -960 Level Indianapolis Center
08:39AM 39.4008 -80.3958 16° North 429 494 35,100 -300 Descending Indianapolis Center
08:46AM 40.1101 -80.1344 16° North 416 479 35,000 -60 Descending FlightAware ADS-B (WMSA / SZB)
08:46AM 40.1683 -80.1124 16° North 417 480 35,000  Level FlightAware ADS-B (WMSA / SZB)
08:47AM 40.2638 -80.0760 16° North 417 480 35,000  Level FlightAware ADS-B (WMSA / SZB)
08:48AM 40.3442 -80.0456 16° North 417 480 35,000  Level FlightAware ADS-B (WMSA / SZB)
08:48AM 40.4096 -80.0207 16° North 417 480 35,000  Level FlightAware ADS-B (WMSA / SZB)
08:49AM 40.5165 -79.9798 16° North 416 479 35,000  Level FlightAware ADS-B (WMSA / SZB)
08:50AM 40.5754 -79.9572 16° North 416 479 35,000  Level FlightAware ADS-B (WMSA / SZB)
08:50AM 40.5834 -79.9542 16° North 416 479 35,000  Level FlightAware ADS-B (CYYZ)
08:50AM 40.6335 -79.9351 16° North 416 479 35,000  Level FlightAware ADS-B (WMSA / SZB)
08:50AM 40.6578 -79.9257 16° North 417 480 35,000  Level FlightAware ADS-B (CYYZ)
08:51AM 40.7152 -79.9036 16° North 417 480 35,000 -120 Level FlightAware ADS-B (CYYZ)
08:52AM 40.7682 -79.8832 16° North 418 481 34,900 -720 Descending FlightAware ADS-B (CYYZ)
08:52AM 40.8681 -79.8445 16° North 408 470 34,000 -1,020 Descending FlightAware ADS-B (CYYZ)
08:53AM 40.9246 -79.8228 16° North 410 472 33,600 -960 Descending FlightAware ADS-B (CYYZ)
08:54AM 40.9964 -79.7950 16° North 409 471 32,900 -1,080 Descending FlightAware ADS-B (CYYZ)
08:54AM 41.0056 -79.7915 16° North 408 470 32,800 -1,020 Descending FlightAware ADS-B (CYKZ)
08:54AM 41.0493 -79.7744 16° North 405 466 32,400 -1,080 Descending FlightAware ADS-B (CYYZ)
08:54AM 41.0864 -79.7599 16° North 401 461 32,000 -1,020 Descending FlightAware ADS-B (CYKZ)
08:55AM 41.1058 -79.7524 16° North 402 463 31,900 -900 Descending FlightAware ADS-B (CYYZ)
08:55AM 41.1591 -79.7317 16° North 400 460 31,400 -1,020 Descending FlightAware ADS-B (CYYZ)
08:55AM 41.1573 -79.7323 16° North 399 459 31,100 -1,080 Descending FlightAware ADS-B (CYKZ)
08:56AM 41.2061 -79.7132 16° North 397 457 30,900 -900 Descending FlightAware ADS-B (CYYZ)
08:56AM 41.2507 -79.6956 17° North 393 452 30,500 -780 Descending FlightAware ADS-B (CYKZ)
08:56AM 41.2637 -79.6904 16° North 393 452 30,500 -960 Level FlightAware ADS-B (CYYZ)
08:57AM 41.3154 -79.6702 16° North 388 447 30,000 -1,020 Descending FlightAware ADS-B (CYYZ)
08:57AM 41.3680 -79.6498 16° North 382 440 29,500 -900 Descending FlightAware ADS-B (CYYZ)
08:57AM 41.3836 -79.6436 16° North 382 440 29,400 -840 Descending FlightAware ADS-B (CYKZ)
08:58AM 41.4170 -79.6305 16° North 383 441 29,100 -1,080 Descending FlightAware ADS-B (CYYZ)
08:58AM 41.4305 -79.6252 16° North 386 444 28,800 -1,200 Descending FlightAware ADS-B (CYKZ)
08:58AM 41.4699 -79.6096 16° North 389 448 28,500 -1,080 Descending FlightAware ADS-B (CYYZ)
08:58AM 41.5048 -79.5958 17° North 389 448 28,100 -840 Descending FlightAware ADS-B (CYKZ)
08:59AM 41.5194 -79.5900 16° North 390 449 28,100 -240 Level FlightAware ADS-B (CYYZ)
08:59AM 41.5659 -79.5718 16° North 392 451 28,000 -120 Descending FlightAware ADS-B (CYKZ)
08:59AM 41.6084 -79.5550 16° North 395 455 28,000  Level FlightAware ADS-B (CYYZ)
09:00AM 41.6309 -79.5461 17° North 391 450 28,000  Level FlightAware ADS-B (CYKZ)
09:00AM 41.6599 -79.5345 16° North 391 450 28,000 -600 Level FlightAware ADS-B (CYYZ)
09:00AM 41.6769 -79.5277 17° North 389 448 27,700 -1,020 Descending FlightAware ADS-B (CYKZ)
09:00AM 41.7130 -79.5132 16° North 390 449 27,500 -900 Descending FlightAware ADS-B (CYYZ)
09:01AM 41.7494 -79.4988 17° North 395 455 27,200 -1,080 Descending FlightAware ADS-B (CYKZ)
09:01AM 41.7648 -79.4927 16° North 396 456 27,000 -1,620 Descending FlightAware ADS-B (CYYZ)
09:01AM 41.8180 -79.4715 16° North 401 461 26,200 -1,920 Descending FlightAware ADS-B (CYYZ)
09:02AM 41.8705 -79.4506 16° North 400 460 25,100 -2,220 Descending FlightAware ADS-B (CYYZ)
09:02AM 41.9239 -79.4292 16° North 401 461 24,000 -2,220 Descending FlightAware ADS-B (CYYZ)
09:03AM 41.9770 -79.4079 16° North 402 463 22,900 -2,280 Descending FlightAware ADS-B (CYYZ)
09:03AM 42.0319 -79.3859 16° North 403 464 21,700 -2,280 Descending FlightAware ADS-B (CYYZ)
09:04AM 42.0855 -79.3643 16° North 401 461 20,600 -2,220 Descending FlightAware ADS-B (CYYZ)
09:04AM 42.1381 -79.3431 16° North 398 458 19,500 -2,280 Descending FlightAware ADS-B (CYYZ)
09:05AM 42.1903 -79.3221 16° North 397 457 18,400 -2,340 Descending FlightAware ADS-B (CYYZ)
09:05AM 42.1469 -79.3395 17° North 398 458 18,300 -2,220 Descending FlightAware ADS-B (CYKZ)
09:05AM 42.2425 -79.3010 16° North 393 452 17,300 -2,280 Descending FlightAware ADS-B (CYYZ)
09:05AM 42.2482 -79.2987 17° North 393 452 17,100 -2,220 Descending FlightAware ADS-B (CYKZ)
09:06AM 42.2932 -79.2804 16° North 386 444 16,200 -2,100 Descending FlightAware ADS-B (CYYZ)
09:06AM 42.3282 -79.2661 17° North 379 436 15,300 -2,160 Descending FlightAware ADS-B (CYKZ)
09:06AM 42.3466 -79.2587 16° North 380 437 15,100 -2,280 Descending FlightAware ADS-B (CYYZ)
09:07AM 42.3959 -79.2388 16° North 378 435 14,000 -2,100 Descending FlightAware ADS-B (CYYZ)
09:07AM 42.4463 -79.2183 16° North 371 427 13,000 -2,100 Descending FlightAware ADS-B (CYYZ)
09:08AM 42.4588 -79.2132 17° North 369 425 12,700 -2,100 Descending FlightAware ADS-B (CYKZ)
09:08AM 42.4951 -79.1984 16° North 365 420 12,000 -2,040 Descending FlightAware ADS-B (CYYZ)
09:08AM 42.5145 -79.1905 17° North 362 417 11,500 -2,040 Descending FlightAware ADS-B (CYKZ)
09:08AM 42.5430 -79.1789 16° North 360 414 11,000 -1,620 Descending FlightAware ADS-B (CYYZ)
09:09AM 42.5895 -79.1598 16° North 345 397 10,300 -1,200 Descending FlightAware ADS-B (CYYZ)
09:09AM 42.6191 -79.1476 16° North 332 382 10,000 -1,080 Descending FlightAware ADS-B (CYYZ)
09:09AM 42.6406 -79.1387 16° North 325 374 9,700 -1,380 Descending FlightAware ADS-B (CYYZ)
09:10AM 42.6628 -79.1296 16° North 320 368 9,300 -1,440 Descending FlightAware ADS-B (CYYZ)
09:10AM 42.6832 -79.1213 16° North 318 366 9,000 -1,260 Descending FlightAware ADS-B (CYYZ)
09:10AM 42.7045 -79.1125 16° North 319 367 8,700 -1,200 Descending FlightAware ADS-B (CYYZ)
09:10AM 42.7215 -79.1056 17° North 317 365 8,400 -1,200 Descending FlightAware ADS-B (CYYZ)
09:11AM 42.7547 -79.0919 16° North 315 362 8,000 -1,200 Descending FlightAware ADS-B (CYYZ)
09:11AM 42.7754 -79.0834 16° North 315 362 7,700 -1,080 Descending FlightAware ADS-B (CYYZ)
09:11AM 42.7965 -79.0748 16° North 312 359 7,500 -1,020 Descending FlightAware ADS-B (CYYZ)
09:12AM 42.8171 -79.0660 20° North 310 357 7,200 -1,200 Descending FlightAware ADS-B (CYYZ)
09:12AM 42.8228 -79.0625 25° Northeast 313 360 7,100 -2,040 Descending FlightAware ADS-B (CYYZ)
09:12AM 42.8292 -79.0572 35° Northeast 315 362 6,900 -1,440 Descending FlightAware ADS-B (CYYZ)
09:12AM 42.8461 -79.0381 41° Northeast 310 357 6,600 -1,200 Descending FlightAware ADS-B (CYYZ)
09:12AM 42.8620 -79.0188 41° Northeast 308 354 6,300 -1,500 Descending FlightAware ADS-B (CYYZ)
09:12AM 42.8778 -78.9995 41° Northeast 304 350 5,900 -1,440 Descending FlightAware ADS-B (CYYZ)
09:13AM 42.8935 -78.9805 41° Northeast 300 345 5,600 -1,200 Descending FlightAware ADS-B (CYYZ)
09:13AM 42.9082 -78.9625 41° Northeast 293 337 5,300 -1,200 Descending FlightAware ADS-B (CYYZ)
09:13AM 42.9232 -78.9442 41° Northeast 289 333 5,000 -1,080 Descending FlightAware ADS-B (CYYZ)
09:13AM 42.9385 -78.9255 41° Northeast 289 333 4,800 -960 Descending FlightAware ADS-B (CYYZ)
09:14AM 42.9416 -78.9218 42° Northeast 276 318 4,700 -840 Descending FlightAware ADS-B (CYKZ)
09:14AM 42.9525 -78.9081 42° Northeast 272 313 4,600 -660 Descending FlightAware ADS-B (CYYZ)
09:14AM 42.9591 -78.8999 43° Northeast 269 310 4,500 -840 Descending FlightAware ADS-B (CYKZ)
09:14AM 42.9660 -78.8911 43° Northeast 263 303 4,400 -840 Descending FlightAware ADS-B (CYYZ)
09:14AM 42.9792 -78.8743 43° Northeast 253 291 4,200 -600 Descending FlightAware ADS-B (CYYZ)
09:14AM 42.9901 -78.8602 43° Northeast 246 283 4,100 -660 Descending FlightAware ADS-B (CYYZ)
09:15AM 43.0035 -78.8427 43° Northeast 238 274 3,900 -780 Descending FlightAware ADS-B (CYYZ)
09:15AM 43.0158 -78.8285 36° Northeast 227 261 3,700 -840 Descending FlightAware ADS-B (CYYZ)
09:15AM 43.0217 -78.8227 36° Northeast 224 258 3,600 -840 Descending FlightAware ADS-B (CYKZ)
09:15AM 43.0281 -78.8166 34° Northeast 213 245 3,500 -840 Descending FlightAware ADS-B (CYYZ)
09:15AM 43.0402 -78.8053 34° Northeast 207 238 3,300 -420 Descending FlightAware ADS-B (CYYZ)
09:16AM 43.0492 -78.7967 35° Northeast 180 207 3,300 -420 Level FlightAware ADS-B (CYYZ)
09:16AM 43.0604 -78.7866 32° Northeast 170 196 3,100 -900 Descending FlightAware ADS-B (CYYZ)
09:16AM 43.0643 -78.7839 23° Northeast 159 183 3,000 -1,320 Descending FlightAware ADS-B (CYYZ)
09:16AM 43.0698 -78.7813 18° North 156 180 2,800 -780 Descending FlightAware ADS-B (CYYZ)
09:17AM 43.1050 -78.7886 18° North 138 159 2,100 -480 Descending Cleveland Center
09:18AM 43.1092 -78.8400 276° West 129 148 1,900 -420 Descending Cleveland Center
09:19AM 43.1092 -78.8892 270° West 128 147 1,300 -600 Descending Cleveland Center